sensor_id;sensor_type;location;lat;lon;timestamp;pressure;altitude;pressure_sealevel;temperature;humidity
51928;BME280;37953;52.806;18.270;2024-02-26T00:02:05;99639.97;;;7.24;100.00
51928;BME280;37953;52.806;18.270;2024-02-26T00:04:41;99645.09;;;7.21;100.00
51928;BME280;37953;52.806;18.270;2024-02-26T00:07:07;99642.53;;;7.18;100.00
51928;BME280;37953;52.806;18.270;2024-02-26T00:09:33;99640.81;;;7.16;100.00
51928;BME280;37953;52.806;18.270;2024-02-26T00:12:02;99642.50;;;7.13;100.00
51928;BME280;37953;52.806;18.270;2024-02-26T00:14:29;99640.78;;;7.09;100.00
51928;BME280;37953;52.806;18.270;2024-02-26T00:16:55;99639.03;;;7.05;100.00
51928;BME280;37953;52.806;18.270;2024-02-26T00:19:21;99641.59;;;6.99;100.00
51928;BME280;37953;52.806;18.270;2024-02-26T00:21:48;99637.25;;;6.93;100.00
51928;BME280;37953;52.806;18.270;2024-02-26T00:24:13;99640.69;;;6.89;100.00
51928;BME280;37953;52.806;18.270;2024-02-26T00:26:40;99640.66;;;6.85;100.00
51928;BME280;37953;52.806;18.270;2024-02-26T00:29:05;99645.81;;;6.80;100.00
51928;BME280;37953;52.806;18.270;2024-02-26T00:31:32;99641.50;;;6.76;100.00
51928;BME280;37953;52.806;18.270;2024-02-26T00:33:57;99643.19;;;6.71;100.00
51928;BME280;37953;52.806;18.270;2024-02-26T00:36:23;99645.75;;;6.68;100.00
51928;BME280;37953;52.806;18.270;2024-02-26T00:38:50;99652.59;;;6.64;100.00
51928;BME280;37953;52.806;18.270;2024-02-26T00:41:19;99642.25;;;6.60;100.00
51928;BME280;37953;52.806;18.270;2024-02-26T00:43:46;99651.72;;;6.56;100.00
51928;BME280;37953;52.806;18.270;2024-02-26T00:46:12;99643.09;;;6.54;100.00
51928;BME280;37953;52.806;18.270;2024-02-26T00:48:38;99641.34;;;6.51;100.00
51928;BME280;37953;52.806;18.270;2024-02-26T00:51:04;99647.38;;;6.50;100.00
51928;BME280;37953;52.806;18.270;2024-02-26T00:53:33;99646.50;;;6.48;100.00
51928;BME280;37953;52.806;18.270;2024-02-26T00:56:00;99649.94;;;6.46;100.00
51928;BME280;37953;52.806;18.270;2024-02-26T00:58:26;99641.31;;;6.42;100.00
51928;BME280;37953;52.806;18.270;2024-02-26T01:00:52;99650.75;;;6.40;100.00
51928;BME280;37953;52.806;18.270;2024-02-26T01:03:18;99644.69;;;6.37;100.00
51928;BME280;37953;52.806;18.270;2024-02-26T01:05:44;99649.84;;;6.34;100.00
51928;BME280;37953;52.806;18.270;2024-02-26T01:08:10;99652.41;;;6.32;100.00
51928;BME280;37953;52.806;18.270;2024-02-26T01:10:36;99645.50;;;6.28;100.00
51928;BME280;37953;52.806;18.270;2024-02-26T01:13:02;99648.94;;;6.25;100.00
51928;BME280;37953;52.806;18.270;2024-02-26T01:15:28;99654.09;;;6.22;100.00
51928;BME280;37953;52.806;18.270;2024-02-26T01:17:54;99648.03;;;6.20;100.00
51928;BME280;37953;52.806;18.270;2024-02-26T01:20:20;99651.44;;;6.18;100.00
51928;BME280;37953;52.806;18.270;2024-02-26T01:22:46;99647.13;;;6.14;100.00
51928;BME280;37953;52.806;18.270;2024-02-26T01:25:12;99654.84;;;6.10;100.00
51928;BME280;37953;52.806;18.270;2024-02-26T01:27:38;99651.38;;;6.07;100.00
51928;BME280;37953;52.806;18.270;2024-02-26T01:30:07;99652.22;;;6.04;100.00
51928;BME280;37953;52.806;18.270;2024-02-26T01:32:33;99645.34;;;6.03;100.00
51928;BME280;37953;52.806;18.270;2024-02-26T01:34:59;99644.47;;;6.03;100.00
51928;BME280;37953;52.806;18.270;2024-02-26T01:37:29;99649.63;;;6.03;100.00
51928;BME280;37953;52.806;18.270;2024-02-26T01:39:55;99653.06;;;6.02;100.00
51928;BME280;37953;52.806;18.270;2024-02-26T01:42:21;99650.47;;;6.02;100.00
51928;BME280;37953;52.806;18.270;2024-02-26T01:44:47;99656.50;;;6.02;100.00
51928;BME280;37953;52.806;18.270;2024-02-26T01:47:13;99657.34;;;6.01;100.00
51928;BME280;37953;52.806;18.270;2024-02-26T01:49:39;99658.19;;;6.00;100.00
51928;BME280;37953;52.806;18.270;2024-02-26T01:52:06;99653.88;;;6.01;100.00
51928;BME280;37953;52.806;18.270;2024-02-26T01:54:42;99656.50;;;6.02;100.00
51928;BME280;37953;52.806;18.270;2024-02-26T01:57:10;99651.34;;;6.02;100.00
51928;BME280;37953;52.806;18.270;2024-02-26T01:59:37;99655.63;;;6.02;100.00
51928;BME280;37953;52.806;18.270;2024-02-26T02:02:03;99660.81;;;6.03;100.00
51928;BME280;37953;52.806;18.270;2024-02-26T02:04:31;99667.66;;;6.00;100.00
51928;BME280;37953;52.806;18.270;2024-02-26T02:06:57;99674.53;;;5.99;100.00
51928;BME280;37953;52.806;18.270;2024-02-26T02:09:32;99671.06;;;5.97;100.00
51928;BME280;37953;52.806;18.270;2024-02-26T02:11:58;99664.16;;;5.95;100.00
51928;BME280;37953;52.806;18.270;2024-02-26T02:14:25;99659.81;;;5.92;100.00
51928;BME280;37953;52.806;18.270;2024-02-26T02:16:51;99661.50;;;5.90;100.00
51928;BME280;37953;52.806;18.270;2024-02-26T02:19:17;99653.78;;;5.90;100.00
51928;BME280;37953;52.806;18.270;2024-02-26T02:21:43;99658.94;;;5.90;100.00
51928;BME280;37953;52.806;18.270;2024-02-26T02:24:09;99652.91;;;5.88;100.00
51928;BME280;37953;52.806;18.270;2024-02-26T02:26:37;99661.50;;;5.87;100.00
51928;BME280;37953;52.806;18.270;2024-02-26T02:29:04;99658.03;;;5.85;100.00
51928;BME280;37953;52.806;18.270;2024-02-26T02:31:30;99663.16;;;5.82;100.00
51928;BME280;37953;52.806;18.270;2024-02-26T02:33:57;99658.84;;;5.79;100.00
51928;BME280;37953;52.806;18.270;2024-02-26T02:36:23;99663.09;;;5.77;100.00
51928;BME280;37953;52.806;18.270;2024-02-26T02:38:49;99662.25;;;5.74;100.00
51928;BME280;37953;52.806;18.270;2024-02-26T02:41:16;99659.63;;;5.70;100.00
51928;BME280;37953;52.806;18.270;2024-02-26T02:43:42;99662.16;;;5.69;100.00
51928;BME280;37953;52.806;18.270;2024-02-26T02:46:10;99662.16;;;5.66;100.00
51928;BME280;37953;52.806;18.270;2024-02-26T02:48:37;99666.47;;;5.65;100.00
51928;BME280;37953;52.806;18.270;2024-02-26T02:51:03;99663.84;;;5.62;100.00
51928;BME280;37953;52.806;18.270;2024-02-26T02:53:29;99665.53;;;5.60;100.00
51928;BME280;37953;52.806;18.270;2024-02-26T02:55:55;99663.78;;;5.58;100.00
51928;BME280;37953;52.806;18.270;2024-02-26T02:58:21;99657.72;;;5.54;100.00
51928;BME280;37953;52.806;18.270;2024-02-26T03:00:47;99654.28;;;5.52;100.00
51928;BME280;37953;52.806;18.270;2024-02-26T03:03:13;99659.41;;;5.49;100.00
51928;BME280;37953;52.806;18.270;2024-02-26T03:05:39;99656.78;;;5.46;100.00
51928;BME280;37953;52.806;18.270;2024-02-26T03:08:05;99657.63;;;5.43;100.00
51928;BME280;37953;52.806;18.270;2024-02-26T03:10:31;99662.75;;;5.42;100.00
51928;BME280;37953;52.806;18.270;2024-02-26T03:12:57;99666.16;;;5.39;100.00
51928;BME280;37953;52.806;18.270;2024-02-26T03:15:23;99663.56;;;5.35;100.00
51928;BME280;37953;52.806;18.270;2024-02-26T03:17:49;99659.22;;;5.32;100.00
51928;BME280;37953;52.806;18.270;2024-02-26T03:20:15;99661.78;;;5.27;100.00
51928;BME280;37953;52.806;18.270;2024-02-26T03:22:41;99665.19;;;5.25;100.00
51928;BME280;37953;52.806;18.270;2024-02-26T03:25:07;99664.28;;;5.23;100.00
51928;BME280;37953;52.806;18.270;2024-02-26T03:27:33;99667.69;;;5.20;100.00
51928;BME280;37953;52.806;18.270;2024-02-26T03:29:59;99666.78;;;5.17;100.00
51928;BME280;37953;52.806;18.270;2024-02-26T03:32:25;99671.91;;;5.15;100.00
51928;BME280;37953;52.806;18.270;2024-02-26T03:34:51;99674.47;;;5.14;100.00
51928;BME280;37953;52.806;18.270;2024-02-26T03:37:20;99675.31;;;5.11;100.00
51928;BME280;37953;52.806;18.270;2024-02-26T03:39:46;99679.59;;;5.10;100.00
51928;BME280;37953;52.806;18.270;2024-02-26T03:42:12;99676.13;;;5.10;100.00
51928;BME280;37953;52.806;18.270;2024-02-26T03:44:38;99672.69;;;5.09;100.00
51928;BME280;37953;52.806;18.270;2024-02-26T03:47:04;99669.25;;;5.07;100.00
51928;BME280;37953;52.806;18.270;2024-02-26T03:49:30;99668.34;;;5.05;100.00
51928;BME280;37953;52.806;18.270;2024-02-26T03:51:56;99669.22;;;5.04;100.00
51928;BME280;37953;52.806;18.270;2024-02-26T03:54:22;99676.91;;;5.03;100.00
51928;BME280;37953;52.806;18.270;2024-02-26T03:56:48;99671.75;;;5.00;100.00
51928;BME280;37953;52.806;18.270;2024-02-26T03:59:14;99678.56;;;4.98;100.00
51928;BME280;37953;52.806;18.270;2024-02-26T04:01:46;99683.66;;;4.95;100.00
51928;BME280;37953;52.806;18.270;2024-02-26T04:04:15;99668.19;;;4.93;100.00
51928;BME280;37953;52.806;18.270;2024-02-26T04:06:44;99675.06;;;4.93;100.00
51928;BME280;37953;52.806;18.270;2024-02-26T04:09:10;99667.34;;;4.93;100.00
51928;BME280;37953;52.806;18.270;2024-02-26T04:11:36;99662.19;;;4.93;100.00
51928;BME280;37953;52.806;18.270;2024-02-26T04:14:02;99663.91;;;4.92;100.00
51928;BME280;37953;52.806;18.270;2024-02-26T04:16:29;99659.63;;;4.93;100.00
51928;BME280;37953;52.806;18.270;2024-02-26T04:18:55;99665.63;;;4.92;100.00
51928;BME280;37953;52.806;18.270;2024-02-26T04:21:21;99661.31;;;4.90;100.00
51928;BME280;37953;52.806;18.270;2024-02-26T04:23:46;99659.59;;;4.89;100.00
51928;BME280;37953;52.806;18.270;2024-02-26T04:26:15;99666.44;;;4.87;100.00
51928;BME280;37953;52.806;18.270;2024-02-26T04:28:41;99662.97;;;4.85;100.00
51928;BME280;37953;52.806;18.270;2024-02-26T04:31:16;99662.94;;;4.84;100.00
51928;BME280;37953;52.806;18.270;2024-02-26T04:33:41;99662.91;;;4.82;100.00
51928;BME280;37953;52.806;18.270;2024-02-26T04:36:12;99653.50;;;4.81;100.00
51928;BME280;37953;52.806;18.270;2024-02-26T04:38:39;99659.47;;;4.80;100.00
51928;BME280;37953;52.806;18.270;2024-02-26T04:41:05;99669.75;;;4.80;100.00
51928;BME280;37953;52.806;18.270;2024-02-26T04:43:31;99668.88;;;4.78;100.00
51928;BME280;37953;52.806;18.270;2024-02-26T04:45:57;99675.72;;;4.78;100.00
51928;BME280;37953;52.806;18.270;2024-02-26T04:48:23;99673.13;;;4.76;100.00
51928;BME280;37953;52.806;18.270;2024-02-26T04:50:49;99670.56;;;4.76;100.00
51928;BME280;37953;52.806;18.270;2024-02-26T04:53:15;99673.13;;;4.76;100.00
51928;BME280;37953;52.806;18.270;2024-02-26T04:55:41;99678.28;;;4.76;100.00
51928;BME280;37953;52.806;18.270;2024-02-26T04:58:06;99680.88;;;4.78;100.00
51928;BME280;37953;52.806;18.270;2024-02-26T05:00:33;99686.91;;;4.80;100.00
51928;BME280;37953;52.806;18.270;2024-02-26T05:02:58;99695.47;;;4.80;100.00
51928;BME280;37953;52.806;18.270;2024-02-26T05:05:25;99695.50;;;4.82;100.00
51928;BME280;37953;52.806;18.270;2024-02-26T05:07:50;99702.41;;;4.84;100.00
51928;BME280;37953;52.806;18.270;2024-02-26T05:10:16;99696.44;;;4.85;100.00
51928;BME280;37953;52.806;18.270;2024-02-26T05:12:42;99699.03;;;4.87;100.00
51928;BME280;37953;52.806;18.270;2024-02-26T05:15:09;99699.88;;;4.87;100.00
51928;BME280;37953;52.806;18.270;2024-02-26T05:17:35;99705.91;;;4.88;100.00
51928;BME280;37953;52.806;18.270;2024-02-26T05:20:01;99696.47;;;4.88;100.00
51928;BME280;37953;52.806;18.270;2024-02-26T05:22:27;99700.75;;;4.88;100.00
51928;BME280;37953;52.806;18.270;2024-02-26T05:24:53;99704.19;;;4.88;100.00
51928;BME280;37953;52.806;18.270;2024-02-26T05:27:19;99708.47;;;4.88;100.00
51928;BME280;37953;52.806;18.270;2024-02-26T05:29:45;99708.44;;;4.86;100.00
51928;BME280;37953;52.806;18.270;2024-02-26T05:32:11;99710.13;;;4.84;100.00
51928;BME280;37953;52.806;18.270;2024-02-26T05:34:37;99712.66;;;4.81;100.00
51928;BME280;37953;52.806;18.270;2024-02-26T05:37:03;99713.50;;;4.79;100.00
51928;BME280;37953;52.806;18.270;2024-02-26T05:39:29;99714.28;;;4.76;100.00
51928;BME280;37953;52.806;18.270;2024-02-26T05:41:55;99720.28;;;4.72;100.00
51928;BME280;37953;52.806;18.270;2024-02-26T05:44:22;99729.66;;;4.68;100.00
51928;BME280;37953;52.806;18.270;2024-02-26T05:46:48;99726.16;;;4.65;100.00
51928;BME280;37953;52.806;18.270;2024-02-26T05:49:14;99726.13;;;4.62;100.00
51928;BME280;37953;52.806;18.270;2024-02-26T05:51:51;99726.94;;;4.59;100.00
51928;BME280;37953;52.806;18.270;2024-02-26T05:54:17;99731.19;;;4.57;100.00
51928;BME280;37953;52.806;18.270;2024-02-26T05:56:43;99735.47;;;4.55;100.00
51928;BME280;37953;52.806;18.270;2024-02-26T05:59:09;99731.09;;;4.53;100.00
51928;BME280;37953;52.806;18.270;2024-02-26T06:01:35;99732.81;;;4.52;100.00
51928;BME280;37953;52.806;18.270;2024-02-26T06:04:01;99735.34;;;4.51;100.00
51928;BME280;37953;52.806;18.270;2024-02-26T06:06:27;99729.31;;;4.48;100.00
51928;BME280;37953;52.806;18.270;2024-02-26T06:08:53;99726.75;;;4.47;100.00
51928;BME280;37953;52.806;18.270;2024-02-26T06:11:19;99726.75;;;4.47;100.00
51928;BME280;37953;52.806;18.270;2024-02-26T06:13:45;99731.88;;;4.45;100.00
51928;BME280;37953;52.806;18.270;2024-02-26T06:16:11;99733.56;;;4.43;100.00
51928;BME280;37953;52.806;18.270;2024-02-26T06:18:37;99740.41;;;4.43;100.00
51928;BME280;37953;52.806;18.270;2024-02-26T06:21:03;99734.41;;;4.42;100.00
51928;BME280;37953;52.806;18.270;2024-02-26T06:23:29;99733.50;;;4.42;100.00
51928;BME280;37953;52.806;18.270;2024-02-26T06:25:55;99736.13;;;4.43;100.00
51928;BME280;37953;52.806;18.270;2024-02-26T06:28:21;99743.88;;;4.45;100.00
51928;BME280;37953;52.806;18.270;2024-02-26T06:30:47;99746.44;;;4.46;100.00
51928;BME280;37953;52.806;18.270;2024-02-26T06:33:13;99739.63;;;4.48;100.00
51928;BME280;37953;52.806;18.270;2024-02-26T06:35:39;99743.06;;;4.51;100.00
51928;BME280;37953;52.806;18.270;2024-02-26T06:38:06;99741.41;;;4.53;100.00
51928;BME280;37953;52.806;18.270;2024-02-26T06:40:33;99743.19;;;4.55;100.00
51928;BME280;37953;52.806;18.270;2024-02-26T06:42:59;99746.59;;;4.56;100.00
51928;BME280;37953;52.806;18.270;2024-02-26T06:45:25;99744.91;;;4.58;100.00
51928;BME280;37953;52.806;18.270;2024-02-26T06:47:51;99743.25;;;4.60;100.00
51928;BME280;37953;52.806;18.270;2024-02-26T06:50:17;99741.56;;;4.62;100.00
51928;BME280;37953;52.806;18.270;2024-02-26T06:52:44;99748.44;;;4.64;100.00
51928;BME280;37953;52.806;18.270;2024-02-26T06:55:10;99756.19;;;4.66;100.00
51928;BME280;37953;52.806;18.270;2024-02-26T06:57:36;99759.66;;;4.68;100.00
51928;BME280;37953;52.806;18.270;2024-02-26T07:00:02;99760.56;;;4.70;100.00
51928;BME280;37953;52.806;18.270;2024-02-26T07:02:30;99771.72;;;4.72;100.00
51928;BME280;37953;52.806;18.270;2024-02-26T07:04:56;99779.47;;;4.75;100.00
51928;BME280;37953;52.806;18.270;2024-02-26T07:07:24;99775.25;;;4.79;100.00
51928;BME280;37953;52.806;18.270;2024-02-26T07:09:49;99775.28;;;4.82;100.00
51928;BME280;37953;52.806;18.270;2024-02-26T07:12:16;99775.31;;;4.83;100.00
51928;BME280;37953;52.806;18.270;2024-02-26T07:14:42;99772.78;;;4.85;100.00
51928;BME280;37953;52.806;18.270;2024-02-26T07:17:09;99774.53;;;4.87;100.00
51928;BME280;37953;52.806;18.270;2024-02-26T07:19:35;99775.41;;;4.89;100.00
51928;BME280;37953;52.806;18.270;2024-02-26T07:22:01;99773.72;;;4.92;100.00
51928;BME280;37953;52.806;18.270;2024-02-26T07:24:27;99765.22;;;4.96;100.00
51928;BME280;37953;52.806;18.270;2024-02-26T07:26:53;99765.25;;;5.00;100.00
51928;BME280;37953;52.806;18.270;2024-02-26T07:29:22;99755.00;;;5.03;100.00
51928;BME280;37953;52.806;18.270;2024-02-26T07:31:48;99754.19;;;5.07;100.00
51928;BME280;37953;52.806;18.270;2024-02-26T07:34:14;99760.28;;;5.13;100.00
51928;BME280;37953;52.806;18.270;2024-02-26T07:36:40;99765.47;;;5.16;100.00
51928;BME280;37953;52.806;18.270;2024-02-26T07:39:06;99763.81;;;5.19;100.00
51928;BME280;37953;52.806;18.270;2024-02-26T07:41:32;99762.16;;;5.23;100.00
51928;BME280;37953;52.806;18.270;2024-02-26T07:43:58;99759.63;;;5.27;100.00
51928;BME280;37953;52.806;18.270;2024-02-26T07:46:24;99771.69;;;5.33;100.00
51928;BME280;37953;52.806;18.270;2024-02-26T07:48:50;99769.19;;;5.38;100.00
51928;BME280;37953;52.806;18.270;2024-02-26T07:51:16;99766.66;;;5.41;100.00
51928;BME280;37953;52.806;18.270;2024-02-26T07:53:42;99771.00;;;5.45;100.00
51928;BME280;37953;52.806;18.270;2024-02-26T07:56:09;99773.63;;;5.49;100.00
51928;BME280;37953;52.806;18.270;2024-02-26T07:58:35;99780.56;;;5.55;100.00
51928;BME280;37953;52.806;18.270;2024-02-26T08:01:01;99786.63;;;5.60;100.00
51928;BME280;37953;52.806;18.270;2024-02-26T08:03:27;99784.13;;;5.66;100.00
51928;BME280;37953;52.806;18.270;2024-02-26T08:05:53;99785.06;;;5.71;100.00
51928;BME280;37953;52.806;18.270;2024-02-26T08:08:20;99787.69;;;5.78;100.00
51928;BME280;37953;52.806;18.270;2024-02-26T08:10:46;99787.75;;;5.84;100.00
51928;BME280;37953;52.806;18.270;2024-02-26T08:13:13;99782.66;;;5.88;100.00
51928;BME280;37953;52.806;18.270;2024-02-26T08:15:41;99793.94;;;5.95;100.00
51928;BME280;37953;52.806;18.270;2024-02-26T08:18:07;99792.28;;;6.02;100.00
51928;BME280;37953;52.806;18.270;2024-02-26T08:20:33;99795.75;;;6.07;100.00
51928;BME280;37953;52.806;18.270;2024-02-26T08:22:59;99790.66;;;6.13;100.00
51928;BME280;37953;52.806;18.270;2024-02-26T08:25:25;99795.91;;;6.21;100.00
51928;BME280;37953;52.806;18.270;2024-02-26T08:27:52;99799.34;;;6.24;100.00
51928;BME280;37953;52.806;18.270;2024-02-26T08:30:18;99801.16;;;6.30;100.00
51928;BME280;37953;52.806;18.270;2024-02-26T08:32:45;99797.75;;;6.36;100.00
51928;BME280;37953;52.806;18.270;2024-02-26T08:35:11;99796.06;;;6.41;100.00
51928;BME280;37953;52.806;18.270;2024-02-26T08:37:37;99803.03;;;6.46;100.00
51928;BME280;37953;52.806;18.270;2024-02-26T08:40:03;99798.75;;;6.50;100.00
51928;BME280;37953;52.806;18.270;2024-02-26T08:42:29;99802.22;;;6.53;100.00
51928;BME280;37953;52.806;18.270;2024-02-26T08:44:56;99803.09;;;6.57;100.00
51928;BME280;37953;52.806;18.270;2024-02-26T08:47:21;99804.00;;;6.61;100.00
51928;BME280;37953;52.806;18.270;2024-02-26T08:49:48;99804.00;;;6.64;100.00
51928;BME280;37953;52.806;18.270;2024-02-26T08:52:13;99805.75;;;6.66;100.00
51928;BME280;37953;52.806;18.270;2024-02-26T08:54:40;99807.50;;;6.70;100.00
51928;BME280;37953;52.806;18.270;2024-02-26T08:57:06;99804.97;;;6.73;100.00
51928;BME280;37953;52.806;18.270;2024-02-26T08:59:32;99796.38;;;6.78;100.00
51928;BME280;37953;52.806;18.270;2024-02-26T09:01:57;99805.00;;;6.81;100.00
51928;BME280;37953;52.806;18.270;2024-02-26T09:04:23;99813.66;;;6.86;100.00
51928;BME280;37953;52.806;18.270;2024-02-26T09:06:49;99804.19;;;6.90;100.00
51928;BME280;37953;52.806;18.270;2024-02-26T09:09:16;99805.09;;;6.93;100.00
51928;BME280;37953;52.806;18.270;2024-02-26T09:11:41;99803.41;;;7.00;100.00
51928;BME280;37953;52.806;18.270;2024-02-26T09:14:08;99806.06;;;7.05;100.00
51928;BME280;37953;52.806;18.270;2024-02-26T09:16:33;99805.19;;;7.10;100.00
51928;BME280;37953;52.806;18.270;2024-02-26T09:19:01;99806.09;;;7.16;100.00
51928;BME280;37953;52.806;18.270;2024-02-26T09:21:28;99801.81;;;7.21;100.00
51928;BME280;37953;52.806;18.270;2024-02-26T09:23:54;99802.72;;;7.27;100.00
51928;BME280;37953;52.806;18.270;2024-02-26T09:26:20;99807.91;;;7.33;100.00
51928;BME280;37953;52.806;18.270;2024-02-26T09:28:46;99812.25;;;7.39;100.00
51928;BME280;37953;52.806;18.270;2024-02-26T09:31:12;99814.88;;;7.44;100.00
51928;BME280;37953;52.806;18.270;2024-02-26T09:33:38;99815.75;;;7.50;100.00
51928;BME280;37953;52.806;18.270;2024-02-26T09:36:04;99815.78;;;7.55;100.00
51928;BME280;37953;52.806;18.270;2024-02-26T09:38:32;99816.66;;;7.60;100.00
51928;BME280;37953;52.806;18.270;2024-02-26T09:41:07;99824.47;;;7.66;100.00
51928;BME280;37953;52.806;18.270;2024-02-26T09:43:39;99832.22;;;7.72;100.00
51928;BME280;37953;52.806;18.270;2024-02-26T09:46:10;99833.97;;;7.78;100.00
51928;BME280;37953;52.806;18.270;2024-02-26T09:48:37;99825.38;;;7.84;100.00
51928;BME280;37953;52.806;18.270;2024-02-26T09:51:03;99812.47;;;7.90;100.00
51928;BME280;37953;52.806;18.270;2024-02-26T09:53:30;99820.25;;;7.96;100.00
51928;BME280;37953;52.806;18.270;2024-02-26T09:55:57;99828.88;;;8.03;100.00
51928;BME280;37953;52.806;18.270;2024-02-26T09:58:24;99827.19;;;8.09;100.00
51928;BME280;37953;52.806;18.270;2024-02-26T10:00:51;99825.44;;;8.14;100.00
51928;BME280;37953;52.806;18.270;2024-02-26T10:03:19;99825.47;;;8.21;100.00
51928;BME280;37953;52.806;18.270;2024-02-26T10:05:47;99822.03;;;8.25;100.00
51928;BME280;37953;52.806;18.270;2024-02-26T10:08:15;99821.19;;;8.32;100.00
51928;BME280;37953;52.806;18.270;2024-02-26T10:10:45;99818.59;;;8.38;100.00
51928;BME280;37953;52.806;18.270;2024-02-26T10:13:11;99822.94;;;8.44;100.00
51928;BME280;37953;52.806;18.270;2024-02-26T10:15:37;99821.25;;;8.49;100.00
51928;BME280;37953;52.806;18.270;2024-02-26T10:18:04;99823.81;;;8.55;100.00
51928;BME280;37953;52.806;18.270;2024-02-26T10:20:30;99819.50;;;8.60;100.00
51928;BME280;37953;52.806;18.270;2024-02-26T10:22:58;99823.84;;;8.66;100.00
51928;BME280;37953;52.806;18.270;2024-02-26T10:25:23;99818.63;;;8.72;100.00
51928;BME280;37953;52.806;18.270;2024-02-26T10:27:52;99812.59;;;8.76;100.00
51928;BME280;37953;52.806;18.270;2024-02-26T10:30:22;99816.91;;;8.80;100.00
51928;BME280;37953;52.806;18.270;2024-02-26T10:32:48;99810.00;;;8.85;100.00
51928;BME280;37953;52.806;18.270;2024-02-26T10:35:15;99813.44;;;8.90;100.00
51928;BME280;37953;52.806;18.270;2024-02-26T10:37:42;99816.91;;;8.95;100.00
51928;BME280;37953;52.806;18.270;2024-02-26T10:40:14;99815.16;;;9.01;100.00
51928;BME280;37953;52.806;18.270;2024-02-26T10:42:41;99819.47;;;9.05;100.00
51928;BME280;37953;52.806;18.270;2024-02-26T10:45:07;99821.22;;;9.10;100.00
51928;BME280;37953;52.806;18.270;2024-02-26T10:47:37;99815.16;;;9.13;100.00
51928;BME280;37953;52.806;18.270;2024-02-26T10:50:04;99818.59;;;9.18;100.00
51928;BME280;37953;52.806;18.270;2024-02-26T10:52:34;99822.91;;;9.24;100.00
51928;BME280;37953;52.806;18.270;2024-02-26T10:55:04;99820.28;;;9.28;100.00
51928;BME280;37953;52.806;18.270;2024-02-26T10:57:40;99820.28;;;9.34;100.00
51928;BME280;37953;52.806;18.270;2024-02-26T11:00:07;99815.94;;;9.40;100.00
51928;BME280;37953;52.806;18.270;2024-02-26T11:02:45;99811.63;;;9.45;100.00
51928;BME280;37953;52.806;18.270;2024-02-26T11:05:14;99809.00;;;9.49;100.00
51928;BME280;37953;52.806;18.270;2024-02-26T11:07:40;99808.97;;;9.54;100.00
51928;BME280;37953;52.806;18.270;2024-02-26T11:10:07;99798.63;;;9.57;100.00
51928;BME280;37953;52.806;18.270;2024-02-26T11:12:34;99799.44;;;9.62;100.00
51928;BME280;37953;52.806;18.270;2024-02-26T11:15:02;99800.31;;;9.67;100.00
51928;BME280;37953;52.806;18.270;2024-02-26T11:17:29;99793.34;;;9.72;100.00
51928;BME280;37953;52.806;18.270;2024-02-26T11:19:59;99792.47;;;9.76;100.00
51928;BME280;37953;52.806;18.270;2024-02-26T11:22:25;99793.31;;;9.80;100.00
51928;BME280;37953;52.806;18.270;2024-02-26T11:24:54;99791.56;;;9.85;100.00
51928;BME280;37953;52.806;18.270;2024-02-26T11:27:42;99792.38;;;9.92;100.00
51928;BME280;37953;52.806;18.270;2024-02-26T11:30:09;99788.06;;;9.95;100.00
51928;BME280;37953;52.806;18.270;2024-02-26T11:32:36;99785.44;;;10.00;100.00
51928;BME280;37953;52.806;18.270;2024-02-26T11:35:22;99782.78;;;10.06;100.00
51928;BME280;37953;52.806;18.270;2024-02-26T11:37:57;99790.53;;;10.11;100.00
51928;BME280;37953;52.806;18.270;2024-02-26T11:40:23;99786.22;;;10.14;100.00
51928;BME280;37953;52.806;18.270;2024-02-26T11:43:00;99786.16;;;10.21;100.00
51928;BME280;37953;52.806;18.270;2024-02-26T11:48:12;99789.56;;;10.30;100.00
51928;BME280;37953;52.806;18.270;2024-02-26T11:50:43;99791.28;;;10.36;100.00
51928;BME280;37953;52.806;18.270;2024-02-26T11:56:12;99783.41;;;10.45;100.00
51928;BME280;37953;52.806;18.270;2024-02-26T11:58:41;99786.00;;;10.50;100.00
51928;BME280;37953;52.806;18.270;2024-02-26T12:03:46;99790.25;;;10.57;100.00
51928;BME280;37953;52.806;18.270;2024-02-26T12:06:12;99784.16;;;10.59;100.00
51928;BME280;37953;52.806;18.270;2024-02-26T12:08:39;99787.59;;;10.63;100.00
51928;BME280;37953;52.806;18.270;2024-02-26T12:11:04;99791.00;;;10.68;100.00
51928;BME280;37953;52.806;18.270;2024-02-26T12:13:50;99795.31;;;10.72;100.00
51928;BME280;37953;52.806;18.270;2024-02-26T12:18:57;99783.97;;;10.81;100.00
51928;BME280;37953;52.806;18.270;2024-02-26T12:21:22;99783.06;;;10.85;100.00
51928;BME280;37953;52.806;18.270;2024-02-26T12:23:49;99781.31;;;10.90;100.00
51928;BME280;37953;52.806;18.270;2024-02-26T12:26:14;99784.72;;;10.94;100.00
51928;BME280;37953;52.806;18.270;2024-02-26T12:28:41;99782.97;;;10.97;100.00
51928;BME280;37953;52.806;18.270;2024-02-26T12:31:06;99779.47;;;11.00;100.00
51928;BME280;37953;52.806;18.270;2024-02-26T12:33:32;99784.66;;;11.02;100.00
51928;BME280;37953;52.806;18.270;2024-02-26T12:35:59;99788.94;;;11.04;100.00
51928;BME280;37953;52.806;18.270;2024-02-26T12:38:26;99788.03;;;11.07;100.00
51928;BME280;37953;52.806;18.270;2024-02-26T12:40:52;99789.78;;;11.08;100.00
51928;BME280;37953;52.806;18.270;2024-02-26T12:43:18;99797.53;;;11.11;100.00
51928;BME280;37953;52.806;18.270;2024-02-26T12:45:44;99790.59;;;11.13;100.00
51928;BME280;37953;52.806;18.270;2024-02-26T12:48:12;99786.22;;;11.15;100.00
51928;BME280;37953;52.806;18.270;2024-02-26T12:50:38;99783.63;;;11.16;100.00
51928;BME280;37953;52.806;18.270;2024-02-26T12:53:07;99782.72;;;11.19;100.00
51928;BME280;37953;52.806;18.270;2024-02-26T12:55:36;99782.72;;;11.22;100.00
51928;BME280;37953;52.806;18.270;2024-02-26T12:58:05;99782.66;;;11.24;100.00